sensor_id;sensor_type;location;lat;lon;timestamp;temperature;humidity
67750;DHT22;54550;48.838;8.828;2023-02-11T08:55:56;1.80;99.90
67750;DHT22;54550;48.838;8.828;2023-02-11T08:58:21;2.00;99.90
67750;DHT22;54550;48.838;8.828;2023-02-11T09:00:48;2.20;99.90
67750;DHT22;54550;48.838;8.828;2023-02-11T09:03:15;2.40;99.90
67750;DHT22;54550;48.838;8.828;2023-02-11T09:05:42;2.50;99.90
67750;DHT22;54550;48.838;8.828;2023-02-11T09:08:08;2.70;99.90
67750;DHT22;54550;48.838;8.828;2023-02-11T09:10:33;3.00;99.90
67750;DHT22;54550;48.838;8.828;2023-02-11T09:12:59;3.30;99.90
67750;DHT22;54550;48.838;8.828;2023-02-11T09:15:25;3.70;99.90
67750;DHT22;54550;48.838;8.828;2023-02-11T09:17:51;3.80;99.90
67750;DHT22;54550;48.838;8.828;2023-02-11T09:20:16;3.60;99.90
67750;DHT22;54550;48.838;8.828;2023-02-11T09:22:42;3.70;99.90
67750;DHT22;54550;48.838;8.828;2023-02-11T09:25:08;4.30;99.90
67750;DHT22;54550;48.838;8.828;2023-02-11T09:27:33;5.30;99.90
67750;DHT22;54550;48.838;8.828;2023-02-11T09:29:59;6.30;99.90
67750;DHT22;54550;48.838;8.828;2023-02-11T09:32:24;6.60;99.90
67750;DHT22;54550;48.838;8.828;2023-02-11T09:34:50;6.50;99.90
67750;DHT22;54550;48.838;8.828;2023-02-11T09:37:15;6.90;99.90
67750;DHT22;54550;48.838;8.828;2023-02-11T09:39:41;7.50;99.90
67750;DHT22;54550;48.838;8.828;2023-02-11T09:44:55;7.90;99.90
67750;DHT22;54550;48.838;8.828;2023-02-11T09:47:31;7.80;99.90
67750;DHT22;54550;48.838;8.828;2023-02-11T09:50:11;8.00;99.90
67750;DHT22;54550;48.838;8.828;2023-02-11T09:52:55;8.20;99.90
67750;DHT22;54550;48.838;8.828;2023-02-11T09:57:51;8.60;99.90
67750;DHT22;54550;48.838;8.828;2023-02-11T10:10:22;9.00;99.90
67750;DHT22;54550;48.838;8.828;2023-02-11T10:15:48;9.40;99.90
67750;DHT22;54550;48.838;8.828;2023-02-11T10:18:53;9.70;99.90
67750;DHT22;54550;48.838;8.828;2023-02-11T10:21:35;10.00;99.90
67750;DHT22;54550;48.838;8.828;2023-02-11T10:24:10;10.50;99.90
67750;DHT22;54550;48.838;8.828;2023-02-11T10:26:37;10.50;99.90
67750;DHT22;54550;48.838;8.828;2023-02-11T10:31:46;10.50;99.90
67750;DHT22;54550;48.838;8.828;2023-02-11T10:34:13;10.60;99.90
67750;DHT22;54550;48.838;8.828;2023-02-11T10:36:41;10.30;99.90
67750;DHT22;54550;48.838;8.828;2023-02-11T10:39:16;10.50;99.90
67750;DHT22;54550;48.838;8.828;2023-02-11T10:42:04;10.00;99.90
67750;DHT22;54550;48.838;8.828;2023-02-11T10:44:36;9.80;99.90
67750;DHT22;54550;48.838;8.828;2023-02-11T10:47:24;9.80;99.90
67750;DHT22;54550;48.838;8.828;2023-02-11T10:49:52;9.80;99.90
67750;DHT22;54550;48.838;8.828;2023-02-11T10:52:26;10.60;99.90
67750;DHT22;54550;48.838;8.828;2023-02-11T10:55:17;11.10;99.90
67750;DHT22;54550;48.838;8.828;2023-02-11T10:58:01;11.20;99.90
67750;DHT22;54550;48.838;8.828;2023-02-11T11:00:38;11.20;99.90
67750;DHT22;54550;48.838;8.828;2023-02-11T11:03:17;11.40;99.90
67750;DHT22;54550;48.838;8.828;2023-02-11T11:05:58;11.70;99.90
67750;DHT22;54550;48.838;8.828;2023-02-11T11:08:47;11.90;99.90
67750;DHT22;54550;48.838;8.828;2023-02-11T11:11:20;11.90;99.90
67750;DHT22;54550;48.838;8.828;2023-02-11T11:13:57;12.40;99.90
67750;DHT22;54550;48.838;8.828;2023-02-11T11:16:27;12.20;99.90
67750;DHT22;54550;48.838;8.828;2023-02-11T11:19:18;12.20;99.90
67750;DHT22;54550;48.838;8.828;2023-02-11T11:21:56;11.80;99.90
67750;DHT22;54550;48.838;8.828;2023-02-11T11:24:30;11.70;99.90
67750;DHT22;54550;48.838;8.828;2023-02-11T11:26:59;11.60;99.90
67750;DHT22;54550;48.838;8.828;2023-02-11T11:29:38;11.60;99.90
67750;DHT22;54550;48.838;8.828;2023-02-11T11:32:10;11.70;99.90
67750;DHT22;54550;48.838;8.828;2023-02-11T11:34:40;11.80;99.90
67750;DHT22;54550;48.838;8.828;2023-02-11T11:37:33;11.50;99.90
67750;DHT22;54550;48.838;8.828;2023-02-11T11:40:03;10.70;99.90
67750;DHT22;54550;48.838;8.828;2023-02-11T11:42:36;10.40;99.90
67750;DHT22;54550;48.838;8.828;2023-02-11T11:45:25;11.40;99.90
67750;DHT22;54550;48.838;8.828;2023-02-11T11:47:54;11.60;99.90
67750;DHT22;54550;48.838;8.828;2023-02-11T11:50:36;11.50;99.90
67750;DHT22;54550;48.838;8.828;2023-02-11T11:53:36;12.60;99.90
67750;DHT22;54550;48.838;8.828;2023-02-11T11:58:40;12.30;99.90
67750;DHT22;54550;48.838;8.828;2023-02-11T12:03:36;11.10;99.90
67750;DHT22;54550;48.838;8.828;2023-02-11T13:30:19;11.40;99.90
67750;DHT22;54550;48.838;8.828;2023-02-11T13:38:05;10.70;99.90
67750;DHT22;54550;48.838;8.828;2023-02-11T13:40:43;10.80;99.90
67750;DHT22;54550;48.838;8.828;2023-02-11T13:43:21;11.20;99.90
67750;DHT22;54550;48.838;8.828;2023-02-11T13:45:49;11.40;99.90
67750;DHT22;54550;48.838;8.828;2023-02-11T13:48:20;11.80;99.90
67750;DHT22;54550;48.838;8.828;2023-02-11T13:50:50;11.30;99.90
67750;DHT22;54550;48.838;8.828;2023-02-11T13:53:21;11.10;99.90
67750;DHT22;54550;48.838;8.828;2023-02-11T13:55:50;11.20;99.90
67750;DHT22;54550;48.838;8.828;2023-02-11T13:58:18;11.40;99.90
67750;DHT22;54550;48.838;8.828;2023-02-11T14:00:47;10.80;99.90
67750;DHT22;54550;48.838;8.828;2023-02-11T14:03:34;10.90;99.90
67750;DHT22;54550;48.838;8.828;2023-02-11T14:06:22;10.80;99.90
67750;DHT22;54550;48.838;8.828;2023-02-11T14:12:15;10.10;99.90
67750;DHT22;54550;48.838;8.828;2023-02-11T14:17:33;10.00;99.90
67750;DHT22;54550;48.838;8.828;2023-02-11T14:20:02;10.40;99.90
67750;DHT22;54550;48.838;8.828;2023-02-11T14:22:41;10.30;99.90
67750;DHT22;54550;48.838;8.828;2023-02-11T14:25:35;10.30;99.90
67750;DHT22;54550;48.838;8.828;2023-02-11T14:28:15;10.40;99.90
67750;DHT22;54550;48.838;8.828;2023-02-11T14:31:29;10.50;99.90
67750;DHT22;54550;48.838;8.828;2023-02-11T14:37:09;10.20;99.90
67750;DHT22;54550;48.838;8.828;2023-02-11T14:42:25;8.30;99.90
67750;DHT22;54550;48.838;8.828;2023-02-11T14:44:56;7.70;99.90
67750;DHT22;54550;48.838;8.828;2023-02-11T14:47:31;7.50;99.90
67750;DHT22;54550;48.838;8.828;2023-02-11T14:50:02;7.40;99.90
67750;DHT22;54550;48.838;8.828;2023-02-11T14:52:31;7.60;99.90
67750;DHT22;54550;48.838;8.828;2023-02-11T14:55:26;7.60;99.90
67750;DHT22;54550;48.838;8.828;2023-02-11T14:58:12;7.90;99.90
67750;DHT22;54550;48.838;8.828;2023-02-11T15:03:30;8.00;99.90
67750;DHT22;54550;48.838;8.828;2023-02-11T15:06:16;8.00;99.90
67750;DHT22;54550;48.838;8.828;2023-02-11T15:08:51;8.00;99.90
67750;DHT22;54550;48.838;8.828;2023-02-11T15:11:20;7.90;99.90
67750;DHT22;54550;48.838;8.828;2023-02-11T15:13:47;7.80;99.90
67750;DHT22;54550;48.838;8.828;2023-02-11T15:16:25;7.30;99.90
67750;DHT22;54550;48.838;8.828;2023-02-11T15:18:59;7.30;99.90
67750;DHT22;54550;48.838;8.828;2023-02-11T15:21:30;7.20;99.90
67750;DHT22;54550;48.838;8.828;2023-02-11T15:24:00;7.20;99.90
67750;DHT22;54550;48.838;8.828;2023-02-11T15:26:28;6.90;99.90
67750;DHT22;54550;48.838;8.828;2023-02-11T15:28:54;6.70;99.90
67750;DHT22;54550;48.838;8.828;2023-02-11T15:31:22;6.60;99.90
67750;DHT22;54550;48.838;8.828;2023-02-11T15:33:51;6.50;99.90
67750;DHT22;54550;48.838;8.828;2023-02-11T15:36:20;6.30;99.90
67750;DHT22;54550;48.838;8.828;2023-02-11T15:39:28;6.20;99.90
67750;DHT22;54550;48.838;8.828;2023-02-11T15:42:14;6.10;99.90
67750;DHT22;54550;48.838;8.828;2023-02-11T15:44:40;6.00;99.90
67750;DHT22;54550;48.838;8.828;2023-02-11T15:47:09;6.00;99.90
67750;DHT22;54550;48.838;8.828;2023-02-11T15:49:36;5.90;99.90
67750;DHT22;54550;48.838;8.828;2023-02-11T15:52:06;5.80;99.90
67750;DHT22;54550;48.838;8.828;2023-02-11T15:54:34;5.80;99.90
67750;DHT22;54550;48.838;8.828;2023-02-11T15:57:05;5.80;99.90
67750;DHT22;54550;48.838;8.828;2023-02-11T15:59:39;6.00;99.90
67750;DHT22;54550;48.838;8.828;2023-02-11T16:02:28;5.90;99.90
67750;DHT22;54550;48.838;8.828;2023-02-11T16:04:59;5.70;99.90
67750;DHT22;54550;48.838;8.828;2023-02-11T16:07:37;5.90;99.90
67750;DHT22;54550;48.838;8.828;2023-02-11T16:10:22;6.60;99.90
67750;DHT22;54550;48.838;8.828;2023-02-11T16:15:56;5.60;99.90
67750;DHT22;54550;48.838;8.828;2023-02-11T16:18:46;5.50;99.90
67750;DHT22;54550;48.838;8.828;2023-02-11T16:21:16;5.50;99.90
67750;DHT22;54550;48.838;8.828;2023-02-11T16:23:50;5.50;99.90
67750;DHT22;54550;48.838;8.828;2023-02-11T16:26:33;5.30;99.90
67750;DHT22;54550;48.838;8.828;2023-02-11T16:29:27;5.40;99.90
67750;DHT22;54550;48.838;8.828;2023-02-11T16:32:26;5.40;99.90
67750;DHT22;54550;48.838;8.828;2023-02-11T16:34:55;5.30;99.90
67750;DHT22;54550;48.838;8.828;2023-02-11T16:37:23;5.20;99.90
67750;DHT22;54550;48.838;8.828;2023-02-11T16:39:49;5.30;99.90
67750;DHT22;54550;48.838;8.828;2023-02-11T16:42:17;5.50;99.90
67750;DHT22;54550;48.838;8.828;2023-02-11T16:44:43;5.20;99.90
67750;DHT22;54550;48.838;8.828;2023-02-11T16:47:23;5.30;99.90
67750;DHT22;54550;48.838;8.828;2023-02-11T16:49:49;5.30;99.90
67750;DHT22;54550;48.838;8.828;2023-02-11T16:52:19;5.40;99.90
67750;DHT22;54550;48.838;8.828;2023-02-11T16:54:45;5.20;99.90
67750;DHT22;54550;48.838;8.828;2023-02-11T16:57:20;5.10;99.90
67750;DHT22;54550;48.838;8.828;2023-02-11T16:59:47;5.20;99.90
67750;DHT22;54550;48.838;8.828;2023-02-11T17:02:32;5.10;99.90
67750;DHT22;54550;48.838;8.828;2023-02-11T17:05:02;5.20;99.90
67750;DHT22;54550;48.838;8.828;2023-02-11T17:07:31;5.10;99.90
67750;DHT22;54550;48.838;8.828;2023-02-11T17:10:00;5.00;99.90
67750;DHT22;54550;48.838;8.828;2023-02-11T17:12:26;5.10;99.90
67750;DHT22;54550;48.838;8.828;2023-02-11T17:14:52;4.90;99.90
67750;DHT22;54550;48.838;8.828;2023-02-11T17:17:18;4.90;99.90
67750;DHT22;54550;48.838;8.828;2023-02-11T17:19:44;5.00;99.90
67750;DHT22;54550;48.838;8.828;2023-02-11T17:22:12;5.00;99.90
67750;DHT22;54550;48.838;8.828;2023-02-11T17:24:40;4.90;99.90
67750;DHT22;54550;48.838;8.828;2023-02-11T17:27:16;5.00;99.90
67750;DHT22;54550;48.838;8.828;2023-02-11T17:29:41;4.80;99.90
67750;DHT22;54550;48.838;8.828;2023-02-11T17:32:08;4.80;99.90
67750;DHT22;54550;48.838;8.828;2023-02-11T17:34:33;4.80;99.90
67750;DHT22;54550;48.838;8.828;2023-02-11T17:36:59;4.70;99.90
67750;DHT22;54550;48.838;8.828;2023-02-11T17:39:26;4.70;99.90
67750;DHT22;54550;48.838;8.828;2023-02-11T17:41:51;4.70;99.90
67750;DHT22;54550;48.838;8.828;2023-02-11T17:44:17;4.60;99.90
67750;DHT22;54550;48.838;8.828;2023-02-11T17:46:43;4.60;99.90
67750;DHT22;54550;48.838;8.828;2023-02-11T17:49:10;4.60;99.90
67750;DHT22;54550;48.838;8.828;2023-02-11T17:51:37;4.60;99.90
67750;DHT22;54550;48.838;8.828;2023-02-11T17:54:11;4.60;99.90
67750;DHT22;54550;48.838;8.828;2023-02-11T17:56:38;4.60;99.90
67750;DHT22;54550;48.838;8.828;2023-02-11T17:59:05;4.60;99.90
67750;DHT22;54550;48.838;8.828;2023-02-11T18:01:32;4.60;99.90
67750;DHT22;54550;48.838;8.828;2023-02-11T18:03:58;4.80;99.90
67750;DHT22;54550;48.838;8.828;2023-02-11T18:06:25;4.70;99.90
67750;DHT22;54550;48.838;8.828;2023-02-11T18:08:50;4.60;99.90
67750;DHT22;54550;48.838;8.828;2023-02-11T18:11:16;4.60;99.90
67750;DHT22;54550;48.838;8.828;2023-02-11T18:13:43;4.60;99.90
67750;DHT22;54550;48.838;8.828;2023-02-11T18:16:10;4.60;99.90
67750;DHT22;54550;48.838;8.828;2023-02-11T18:18:40;4.60;99.90
67750;DHT22;54550;48.838;8.828;2023-02-11T18:21:06;4.60;99.90
67750;DHT22;54550;48.838;8.828;2023-02-11T18:23:35;4.60;99.90
67750;DHT22;54550;48.838;8.828;2023-02-11T18:26:00;4.50;99.90
67750;DHT22;54550;48.838;8.828;2023-02-11T18:28:27;4.60;99.90
67750;DHT22;54550;48.838;8.828;2023-02-11T18:31:00;4.60;99.90
67750;DHT22;54550;48.838;8.828;2023-02-11T18:33:26;4.70;99.90
67750;DHT22;54550;48.838;8.828;2023-02-11T18:35:52;4.70;99.90
67750;DHT22;54550;48.838;8.828;2023-02-11T18:38:17;4.60;99.90
67750;DHT22;54550;48.838;8.828;2023-02-11T18:40:43;4.70;99.90
67750;DHT22;54550;48.838;8.828;2023-02-11T18:43:12;4.50;99.90
67750;DHT22;54550;48.838;8.828;2023-02-11T18:45:42;4.50;99.90
67750;DHT22;54550;48.838;8.828;2023-02-11T18:48:08;4.50;99.90
67750;DHT22;54550;48.838;8.828;2023-02-11T18:50:33;4.40;99.90
67750;DHT22;54550;48.838;8.828;2023-02-11T18:52:59;4.40;99.90
67750;DHT22;54550;48.838;8.828;2023-02-11T18:55:24;4.40;99.90
67750;DHT22;54550;48.838;8.828;2023-02-11T18:57:50;4.40;99.90
67750;DHT22;54550;48.838;8.828;2023-02-11T19:00:17;4.40;99.90
67750;DHT22;54550;48.838;8.828;2023-02-11T19:02:43;4.40;99.90
67750;DHT22;54550;48.838;8.828;2023-02-11T19:05:09;4.60;99.90
67750;DHT22;54550;48.838;8.828;2023-02-11T19:07:36;4.50;99.90
67750;DHT22;54550;48.838;8.828;2023-02-11T19:10:02;4.50;99.90
67750;DHT22;54550;48.838;8.828;2023-02-11T19:12:28;4.50;99.90
67750;DHT22;54550;48.838;8.828;2023-02-11T19:14:53;4.50;99.90
67750;DHT22;54550;48.838;8.828;2023-02-11T19:17:19;4.50;99.90
67750;DHT22;54550;48.838;8.828;2023-02-11T19:19:45;4.40;99.90
67750;DHT22;54550;48.838;8.828;2023-02-11T19:22:10;4.50;99.90
67750;DHT22;54550;48.838;8.828;2023-02-11T19:24:36;4.50;99.90
67750;DHT22;54550;48.838;8.828;2023-02-11T19:27:03;4.50;99.90
67750;DHT22;54550;48.838;8.828;2023-02-11T19:29:29;4.50;99.90
67750;DHT22;54550;48.838;8.828;2023-02-11T19:31:59;4.60;99.90
67750;DHT22;54550;48.838;8.828;2023-02-11T19:34:25;4.50;99.90
67750;DHT22;54550;48.838;8.828;2023-02-11T19:36:51;4.50;99.90
67750;DHT22;54550;48.838;8.828;2023-02-11T19:39:18;4.50;99.90
67750;DHT22;54550;48.838;8.828;2023-02-11T19:41:44;4.50;99.90
67750;DHT22;54550;48.838;8.828;2023-02-11T19:44:11;4.50;99.90
67750;DHT22;54550;48.838;8.828;2023-02-11T19:46:38;4.50;99.90
67750;DHT22;54550;48.838;8.828;2023-02-11T19:49:05;4.50;99.90
67750;DHT22;54550;48.838;8.828;2023-02-11T19:51:32;4.50;99.90
67750;DHT22;54550;48.838;8.828;2023-02-11T19:54:00;4.50;99.90
67750;DHT22;54550;48.838;8.828;2023-02-11T19:56:26;4.60;99.90
67750;DHT22;54550;48.838;8.828;2023-02-11T19:58:54;4.50;99.90
67750;DHT22;54550;48.838;8.828;2023-02-11T20:01:21;4.50;99.90
67750;DHT22;54550;48.838;8.828;2023-02-11T20:03:48;4.50;99.90
67750;DHT22;54550;48.838;8.828;2023-02-11T20:06:18;4.50;99.90
67750;DHT22;54550;48.838;8.828;2023-02-11T20:08:44;4.60;99.90
67750;DHT22;54550;48.838;8.828;2023-02-11T20:11:14;4.70;99.90
67750;DHT22;54550;48.838;8.828;2023-02-11T20:13:41;4.50;99.90
67750;DHT22;54550;48.838;8.828;2023-02-11T20:16:09;4.50;99.90
67750;DHT22;54550;48.838;8.828;2023-02-11T20:18:37;4.50;99.90
67750;DHT22;54550;48.838;8.828;2023-02-11T20:21:11;4.40;99.90
67750;DHT22;54550;48.838;8.828;2023-02-11T20:23:37;4.30;99.90
67750;DHT22;54550;48.838;8.828;2023-02-11T20:26:09;4.40;99.90
67750;DHT22;54550;48.838;8.828;2023-02-11T20:28:35;4.30;99.90
67750;DHT22;54550;48.838;8.828;2023-02-11T20:31:01;4.20;99.90
67750;DHT22;54550;48.838;8.828;2023-02-11T20:33:27;4.20;99.90
67750;DHT22;54550;48.838;8.828;2023-02-11T20:36:00;4.10;99.90
67750;DHT22;54550;48.838;8.828;2023-02-11T20:38:27;4.10;99.90
67750;DHT22;54550;48.838;8.828;2023-02-11T20:40:53;4.00;99.90
67750;DHT22;54550;48.838;8.828;2023-02-11T20:43:19;4.00;99.90
67750;DHT22;54550;48.838;8.828;2023-02-11T20:45:45;3.90;99.90
67750;DHT22;54550;48.838;8.828;2023-02-11T20:48:11;3.90;99.90
67750;DHT22;54550;48.838;8.828;2023-02-11T20:50:37;3.90;99.90
67750;DHT22;54550;48.838;8.828;2023-02-11T20:53:04;3.90;99.90
67750;DHT22;54550;48.838;8.828;2023-02-11T20:55:29;3.80;99.90
67750;DHT22;54550;48.838;8.828;2023-02-11T20:57:55;3.80;99.90
67750;DHT22;54550;48.838;8.828;2023-02-11T21:00:21;3.80;99.90
67750;DHT22;54550;48.838;8.828;2023-02-11T21:02:51;3.80;99.90
67750;DHT22;54550;48.838;8.828;2023-02-11T21:05:17;3.90;99.90
67750;DHT22;54550;48.838;8.828;2023-02-11T21:07:42;3.90;99.90
67750;DHT22;54550;48.838;8.828;2023-02-11T21:10:08;3.80;99.90
67750;DHT22;54550;48.838;8.828;2023-02-11T21:12:34;3.80;99.90
67750;DHT22;54550;48.838;8.828;2023-02-11T21:14:59;3.80;99.90
67750;DHT22;54550;48.838;8.828;2023-02-11T21:17:26;3.80;99.90
67750;DHT22;54550;48.838;8.828;2023-02-11T21:19:55;3.90;99.90
67750;DHT22;54550;48.838;8.828;2023-02-11T21:22:20;4.00;99.90
67750;DHT22;54550;48.838;8.828;2023-02-11T21:24:46;4.10;99.90
67750;DHT22;54550;48.838;8.828;2023-02-11T21:27:11;4.10;99.90
67750;DHT22;54550;48.838;8.828;2023-02-11T21:29:37;4.10;99.90
67750;DHT22;54550;48.838;8.828;2023-02-11T21:32:02;4.10;99.90
67750;DHT22;54550;48.838;8.828;2023-02-11T21:34:28;4.10;99.90
67750;DHT22;54550;48.838;8.828;2023-02-11T21:36:54;4.30;99.90
67750;DHT22;54550;48.838;8.828;2023-02-11T21:39:19;4.20;99.90
67750;DHT22;54550;48.838;8.828;2023-02-11T21:41:45;4.10;99.90
67750;DHT22;54550;48.838;8.828;2023-02-11T21:44:10;4.10;99.90
67750;DHT22;54550;48.838;8.828;2023-02-11T21:46:36;4.10;99.90
67750;DHT22;54550;48.838;8.828;2023-02-11T21:49:02;4.00;99.90
67750;DHT22;54550;48.838;8.828;2023-02-11T21:51:27;4.00;99.90
67750;DHT22;54550;48.838;8.828;2023-02-11T21:53:55;4.00;99.90
67750;DHT22;54550;48.838;8.828;2023-02-11T21:56:21;4.00;99.90
67750;DHT22;54550;48.838;8.828;2023-02-11T21:58:51;3.90;99.90
67750;DHT22;54550;48.838;8.828;2023-02-11T22:01:30;3.90;99.90
67750;DHT22;54550;48.838;8.828;2023-02-11T22:03:56;4.00;99.90
67750;DHT22;54550;48.838;8.828;2023-02-11T22:06:25;3.90;99.90
67750;DHT22;54550;48.838;8.828;2023-02-11T22:08:53;3.80;99.90
67750;DHT22;54550;48.838;8.828;2023-02-11T22:11:19;3.80;99.90
67750;DHT22;54550;48.838;8.828;2023-02-11T22:13:45;3.80;99.90
67750;DHT22;54550;48.838;8.828;2023-02-11T22:16:13;3.70;99.90
67750;DHT22;54550;48.838;8.828;2023-02-11T22:18:39;3.80;99.90
67750;DHT22;54550;48.838;8.828;2023-02-11T22:21:11;3.80;99.90
67750;DHT22;54550;48.838;8.828;2023-02-11T22:23:38;3.90;99.90
67750;DHT22;54550;48.838;8.828;2023-02-11T22:26:07;3.80;99.90
67750;DHT22;54550;48.838;8.828;2023-02-11T22:28:33;3.80;99.90
67750;DHT22;54550;48.838;8.828;2023-02-11T22:31:00;3.80;99.90
67750;DHT22;54550;48.838;8.828;2023-02-11T22:33:26;3.80;99.90
67750;DHT22;54550;48.838;8.828;2023-02-11T22:36:00;3.80;99.90
67750;DHT22;54550;48.838;8.828;2023-02-11T22:38:27;3.80;99.90
67750;DHT22;54550;48.838;8.828;2023-02-11T22:40:53;3.80;99.90
67750;DHT22;54550;48.838;8.828;2023-02-11T22:43:18;3.80;99.90
67750;DHT22;54550;48.838;8.828;2023-02-11T22:45:44;3.80;99.90
67750;DHT22;54550;48.838;8.828;2023-02-11T22:48:09;3.80;99.90
67750;DHT22;54550;48.838;8.828;2023-02-11T22:50:35;3.80;99.90
67750;DHT22;54550;48.838;8.828;2023-02-11T22:53:00;3.70;99.90
67750;DHT22;54550;48.838;8.828;2023-02-11T22:55:26;3.70;99.90
67750;DHT22;54550;48.838;8.828;2023-02-11T22:57:51;3.70;99.90
67750;DHT22;54550;48.838;8.828;2023-02-11T23:00:19;3.60;99.90
67750;DHT22;54550;48.838;8.828;2023-02-11T23:02:45;3.60;99.90
67750;DHT22;54550;48.838;8.828;2023-02-11T23:05:10;3.60;99.90
67750;DHT22;54550;48.838;8.828;2023-02-11T23:07:36;3.60;99.90
67750;DHT22;54550;48.838;8.828;2023-02-11T23:10:02;3.60;99.90
67750;DHT22;54550;48.838;8.828;2023-02-11T23:12:27;3.70;99.90
67750;DHT22;54550;48.838;8.828;2023-02-11T23:14:53;3.60;99.90
67750;DHT22;54550;48.838;8.828;2023-02-11T23:17:18;3.60;99.90
67750;DHT22;54550;48.838;8.828;2023-02-11T23:19:44;3.60;99.90
67750;DHT22;54550;48.838;8.828;2023-02-11T23:22:13;3.60;99.90
67750;DHT22;54550;48.838;8.828;2023-02-11T23:24:39;3.60;99.90
67750;DHT22;54550;48.838;8.828;2023-02-11T23:27:04;3.60;99.90
67750;DHT22;54550;48.838;8.828;2023-02-11T23:29:30;3.60;99.90
67750;DHT22;54550;48.838;8.828;2023-02-11T23:31:55;3.60;99.90
67750;DHT22;54550;48.838;8.828;2023-02-11T23:34:21;3.70;99.90
67750;DHT22;54550;48.838;8.828;2023-02-11T23:36:51;3.70;99.90
67750;DHT22;54550;48.838;8.828;2023-02-11T23:39:16;3.70;99.90
67750;DHT22;54550;48.838;8.828;2023-02-11T23:41:42;3.70;99.90
67750;DHT22;54550;48.838;8.828;2023-02-11T23:44:09;3.70;99.90
67750;DHT22;54550;48.838;8.828;2023-02-11T23:46:35;3.70;99.90
67750;DHT22;54550;48.838;8.828;2023-02-11T23:49:01;3.70;99.90
67750;DHT22;54550;48.838;8.828;2023-02-11T23:51:26;3.70;99.90
67750;DHT22;54550;48.838;8.828;2023-02-11T23:53:52;3.70;99.90
67750;DHT22;54550;48.838;8.828;2023-02-11T23:56:22;3.70;99.90
67750;DHT22;54550;48.838;8.828;2023-02-11T23:58:49;3.70;99.90
